createdAt,value
2022-10-04T00:01:50.555Z,10.07
2022-10-04T00:04:45.068Z,10.06
2022-10-04T00:07:12.540Z,10.08
2022-10-04T00:09:50.605Z,10.10
2022-10-04T00:12:24.109Z,10.13
2022-10-04T00:14:55.421Z,10.15
2022-10-04T00:17:31.621Z,10.16
2022-10-04T00:19:59.387Z,10.21
2022-10-04T00:22:29.916Z,10.23
2022-10-04T00:25:17.458Z,10.23
2022-10-04T00:28:17.195Z,10.26
2022-10-04T00:30:44.968Z,10.28
2022-10-04T00:33:35.344Z,10.28
2022-10-04T00:36:25.428Z,10.28
2022-10-04T00:39:12.030Z,10.29
2022-10-04T00:41:52.775Z,10.29
2022-10-04T00:44:36.292Z,10.29
2022-10-04T00:47:21.761Z,10.29
2022-10-04T00:49:57.819Z,10.29
2022-10-04T00:52:29.861Z,10.32
2022-10-04T00:55:05.916Z,10.32
2022-10-04T00:57:44.963Z,10.28
2022-10-04T01:00:18.040Z,10.25
2022-10-04T01:02:55.103Z,10.25
2022-10-04T01:05:45.322Z,10.26
2022-10-04T01:08:13.908Z,10.27
2022-10-04T01:10:52.391Z,10.28
2022-10-04T01:13:23.561Z,10.29
2022-10-04T01:16:17.771Z,10.31
2022-10-04T01:18:48.837Z,10.32
2022-10-04T01:21:19.666Z,10.32
2022-10-04T01:23:50.683Z,10.35
2022-10-04T01:26:38.000Z,10.38
2022-10-04T01:29:26.759Z,10.39
2022-10-04T01:31:57.373Z,10.39
2022-10-04T01:34:29.240Z,10.37
2022-10-04T01:37:00.546Z,10.35
2022-10-04T01:39:29.042Z,10.34
2022-10-04T01:42:16.839Z,10.32
2022-10-04T01:45:03.574Z,10.29
2022-10-04T01:47:39.414Z,10.22
2022-10-04T01:50:16.069Z,10.17
2022-10-04T01:53:08.669Z,10.14
2022-10-04T01:55:42.057Z,10.09
2022-10-04T01:58:16.907Z,10.09
2022-10-04T02:00:57.651Z,10.09
2022-10-04T02:03:36.859Z,10.06
2022-10-04T02:06:09.627Z,10.03
2022-10-04T02:08:50.507Z,10.01
2022-10-04T02:11:22.339Z,10.00
2022-10-04T02:13:54.502Z,10.00
2022-10-04T02:16:25.012Z,10.00
2022-10-04T02:18:54.363Z,9.97
2022-10-04T02:21:24.776Z,9.96
2022-10-04T02:23:54.682Z,9.95
2022-10-04T02:26:22.835Z,9.95
2022-10-04T02:28:51.747Z,9.96
2022-10-04T02:31:39.050Z,9.97
2022-10-04T02:34:07.605Z,9.97
2022-10-04T02:36:36.591Z,9.96
2022-10-04T02:39:08.096Z,9.93
2022-10-04T02:41:44.154Z,9.90
2022-10-04T02:44:21.489Z,9.88
2022-10-04T02:46:57.297Z,9.87
2022-10-04T02:49:42.212Z,9.85
2022-10-04T02:52:24.457Z,9.80
2022-10-04T02:55:04.527Z,9.75
2022-10-04T02:57:35.876Z,9.71
2022-10-04T03:00:12.373Z,9.69
2022-10-04T03:02:40.382Z,9.67
2022-10-04T03:05:13.311Z,9.65
2022-10-04T03:07:41.249Z,9.63
2022-10-04T03:10:12.716Z,9.61
2022-10-04T03:12:42.406Z,9.62
2022-10-04T03:15:14.177Z,9.64
2022-10-04T03:17:43.887Z,9.65
2022-10-04T03:20:16.462Z,9.67
2022-10-04T03:22:51.081Z,9.69
2022-10-04T03:25:31.073Z,9.73
2022-10-04T03:28:02.993Z,9.75
2022-10-04T03:30:32.687Z,9.78
2022-10-04T03:33:00.462Z,9.80
2022-10-04T03:35:31.614Z,9.82
2022-10-04T03:38:03.469Z,9.83
2022-10-04T03:40:33.209Z,9.85
2022-10-04T03:43:04.991Z,9.88
2022-10-04T03:45:35.745Z,9.90
2022-10-04T03:48:10.102Z,9.94
2022-10-04T03:50:48.170Z,9.97
2022-10-04T03:53:24.363Z,9.98
2022-10-04T03:55:52.853Z,9.98
2022-10-04T03:58:20.932Z,9.96
2022-10-04T04:01:26.083Z,9.95
2022-10-04T04:04:13.171Z,9.93
2022-10-04T04:07:10.558Z,9.89
2022-10-04T04:09:51.392Z,9.85
2022-10-04T04:12:27.996Z,9.84
2022-10-04T04:14:55.728Z,9.81
2022-10-04T04:17:28.859Z,9.80
2022-10-04T04:20:07.413Z,9.78
2022-10-04T04:22:37.338Z,9.77
2022-10-04T04:25:12.262Z,9.76
2022-10-04T04:27:43.826Z,9.76
2022-10-04T04:30:16.930Z,9.76
2022-10-04T04:32:55.711Z,9.77
2022-10-04T04:35:32.313Z,9.77
2022-10-04T04:38:05.496Z,9.77
2022-10-04T04:40:34.028Z,9.81
2022-10-04T04:43:03.380Z,9.88
2022-10-04T04:45:34.051Z,9.95
2022-10-04T04:48:03.810Z,10.02
2022-10-04T04:50:37.479Z,10.09
2022-10-04T04:53:26.857Z,10.17
2022-10-04T04:56:04.618Z,10.22
2022-10-04T04:58:38.046Z,10.25
2022-10-04T05:01:18.517Z,10.25
2022-10-04T05:04:03.691Z,10.28
2022-10-04T05:06:34.046Z,10.32
2022-10-04T05:09:03.488Z,10.37
2022-10-04T05:11:37.818Z,10.38
2022-10-04T05:14:11.052Z,10.37
2022-10-04T05:16:55.782Z,10.39
2022-10-04T05:19:39.581Z,10.40
2022-10-04T05:22:11.494Z,10.42
2022-10-04T05:24:48.549Z,10.43
2022-10-04T05:27:25.880Z,10.43
2022-10-04T05:30:12.510Z,10.44
2022-10-04T05:32:54.822Z,10.44
2022-10-04T05:35:23.190Z,10.45
2022-10-04T05:37:50.803Z,10.49
2022-10-04T05:40:36.959Z,10.51
2022-10-04T05:43:36.781Z,10.52
2022-10-04T05:46:18.920Z,10.52
2022-10-04T05:48:53.157Z,10.51
2022-10-04T05:51:28.078Z,10.53
2022-10-04T05:53:59.854Z,10.58
2022-10-04T05:56:30.365Z,10.61
2022-10-04T05:59:23.028Z,10.66
2022-10-04T06:02:09.375Z,10.73
2022-10-04T06:04:53.184Z,10.78
2022-10-04T06:07:23.885Z,10.81
2022-10-04T06:10:07.805Z,10.83
2022-10-04T06:12:46.940Z,10.84
2022-10-04T06:15:36.957Z,10.88
2022-10-04T06:18:36.980Z,10.94
2022-10-04T06:21:28.548Z,10.95
2022-10-04T06:24:15.843Z,10.94
2022-10-04T06:26:48.387Z,10.95
2022-10-04T06:29:21.317Z,11.01
2022-10-04T06:32:13.317Z,11.07
2022-10-04T06:35:04.004Z,11.11
2022-10-04T06:37:49.978Z,11.15
2022-10-04T06:40:36.719Z,11.19
2022-10-04T06:43:20.384Z,11.24
2022-10-04T06:46:14.259Z,11.29
2022-10-04T06:48:59.179Z,11.30
2022-10-04T06:51:40.934Z,11.27
2022-10-04T06:54:40.084Z,11.24
2022-10-04T06:57:31.678Z,11.27
2022-10-04T07:00:05.970Z,11.36
2022-10-04T07:02:45.604Z,11.43
2022-10-04T07:05:13.153Z,11.49
2022-10-04T07:07:48.624Z,11.54
2022-10-04T07:10:50.089Z,11.61
2022-10-04T07:13:47.191Z,11.68
2022-10-04T07:16:17.529Z,11.74
2022-10-04T07:18:54.045Z,11.78
2022-10-04T07:21:27.949Z,11.77
2022-10-04T07:24:04.076Z,11.82
2022-10-04T07:26:44.103Z,11.92
2022-10-04T07:29:23.399Z,11.99
2022-10-04T07:32:10.049Z,12.05
2022-10-04T07:34:54.896Z,12.11
2022-10-04T07:37:27.439Z,12.19
2022-10-04T07:40:22.590Z,12.26
2022-10-04T07:43:06.338Z,12.31
2022-10-04T07:45:39.879Z,12.33
2022-10-04T07:48:24.912Z,12.34
2022-10-04T07:51:25.504Z,12.41
2022-10-04T07:54:05.060Z,12.57
2022-10-04T07:57:00.217Z,12.70
2022-10-04T08:00:05.932Z,12.72
2022-10-04T08:02:56.247Z,12.71
2022-10-04T08:05:34.734Z,12.71
2022-10-04T08:08:05.517Z,12.71
2022-10-04T08:10:56.510Z,12.67
2022-10-04T08:13:56.950Z,12.62
2022-10-04T08:16:41.166Z,12.61
2022-10-04T08:19:40.808Z,12.64
2022-10-04T08:22:47.723Z,12.80
2022-10-04T08:25:29.518Z,12.85
2022-10-04T08:28:45.773Z,12.88
2022-10-04T08:31:29.909Z,12.89
2022-10-04T08:34:21.585Z,12.92
2022-10-04T08:36:56.544Z,12.98
2022-10-04T08:39:56.702Z,13.00
2022-10-04T08:42:49.841Z,13.05
2022-10-04T08:45:44.979Z,13.13
2022-10-04T08:48:46.571Z,13.20
2022-10-04T08:51:40.074Z,13.26
2022-10-04T08:54:44.927Z,13.32
2022-10-04T08:57:31.759Z,13.47
2022-10-04T09:00:31.582Z,13.62
2022-10-04T09:03:31.251Z,13.94
2022-10-04T09:06:01.306Z,14.11
2022-10-04T09:08:59.185Z,14.19
2022-10-04T09:11:58.746Z,14.23
2022-10-04T09:14:58.280Z,14.37
2022-10-04T09:17:46.920Z,14.47
2022-10-04T09:20:41.000Z,14.65
2022-10-04T09:23:31.596Z,14.74
2022-10-04T09:26:10.321Z,14.80
2022-10-04T09:29:10.015Z,14.85
2022-10-04T09:32:09.511Z,15.25
2022-10-04T09:35:11.984Z,15.71
2022-10-04T09:37:55.558Z,16.17
2022-10-04T09:40:29.247Z,16.60
2022-10-04T09:43:28.841Z,16.69
2022-10-04T09:46:16.192Z,16.85
2022-10-04T09:48:59.833Z,17.19
2022-10-04T09:51:46.124Z,17.56
2022-10-04T09:54:41.090Z,18.01
2022-10-04T09:57:18.961Z,18.48
2022-10-04T10:00:22.232Z,18.41
2022-10-04T10:03:17.387Z,18.03
2022-10-04T10:05:46.158Z,17.95
2022-10-04T10:08:56.657Z,17.89
2022-10-04T10:11:49.381Z,17.60
2022-10-04T10:14:44.459Z,17.25
2022-10-04T10:17:36.411Z,17.27
2022-10-04T10:20:40.263Z,17.46
2022-10-04T10:23:45.243Z,17.47
2022-10-04T10:26:28.123Z,17.47
2022-10-04T10:29:14.568Z,17.32
2022-10-04T10:32:00.872Z,17.09
2022-10-04T10:34:52.399Z,16.76
2022-10-04T10:37:35.932Z,16.47
2022-10-04T10:40:17.460Z,16.27
2022-10-04T10:42:50.961Z,16.16
2022-10-04T10:45:38.242Z,16.11
2022-10-04T10:48:27.662Z,16.05
2022-10-04T10:51:10.322Z,15.85
2022-10-04T10:54:09.860Z,15.75
2022-10-04T10:56:56.730Z,16.16
2022-10-04T10:59:56.266Z,16.28
2022-10-04T11:03:12.116Z,16.22
2022-10-04T11:06:13.982Z,16.12
2022-10-04T11:09:18.381Z,16.56
2022-10-04T11:11:45.876Z,17.26
2022-10-04T11:15:22.755Z,17.59
2022-10-04T11:18:08.570Z,17.46
2022-10-04T11:21:08.204Z,17.58
2022-10-04T11:24:04.493Z,17.59
2022-10-04T11:27:10.988Z,17.59
2022-10-04T11:30:01.610Z,17.64
2022-10-04T11:32:45.488Z,17.63
2022-10-04T11:35:35.265Z,17.53
2022-10-04T11:38:20.257Z,17.28
2022-10-04T11:40:56.446Z,16.91
2022-10-04T11:43:40.306Z,16.56
2022-10-04T11:46:27.114Z,16.39
2022-10-04T11:49:08.247Z,16.35
2022-10-04T11:51:58.685Z,16.24
2022-10-04T11:54:49.915Z,16.13
2022-10-04T11:57:23.598Z,16.10
2022-10-04T12:00:07.409Z,16.13
2022-10-04T12:03:11.231Z,16.09
2022-10-04T12:06:09.214Z,16.10
2022-10-04T12:09:11.120Z,16.43
2022-10-04T12:12:13.104Z,16.79
2022-10-04T12:22:24.229Z,16.89
2022-10-04T12:36:39.765Z,17.92
2022-10-04T12:39:24.512Z,18.87
2022-10-04T12:42:23.031Z,19.68
2022-10-04T12:44:50.547Z,20.53
2022-10-04T12:47:34.114Z,20.56
2022-10-04T12:50:43.932Z,20.49
2022-10-04T12:53:55.571Z,20.15
2022-10-04T12:57:31.254Z,19.61
2022-10-04T13:01:01.416Z,19.21
2022-10-04T13:03:43.298Z,18.76
2022-10-04T13:06:24.436Z,18.64
2022-10-04T13:09:11.971Z,18.50
2022-10-04T13:14:42.025Z,18.40
2022-10-04T13:18:12.595Z,18.41
2022-10-04T13:24:31.822Z,18.20
2022-10-04T13:27:16.812Z,18.07
2022-10-04T13:30:33.873Z,17.86
2022-10-04T13:41:10.107Z,18.30
2022-10-04T13:44:04.750Z,18.62
2022-10-04T13:46:41.906Z,19.74
2022-10-04T13:50:13.291Z,20.58
2022-10-04T13:53:43.403Z,21.50
2022-10-04T13:56:43.059Z,22.88
2022-10-04T13:59:35.351Z,24.14
2022-10-04T14:02:21.700Z,25.24
2022-10-04T14:05:10.626Z,26.42
2022-10-04T14:08:07.670Z,27.35
2022-10-04T14:11:07.992Z,28.07
2022-10-04T14:14:11.831Z,28.52
2022-10-04T14:17:14.101Z,28.56
2022-10-04T14:20:00.137Z,28.61
2022-10-04T14:23:00.539Z,28.48
2022-10-04T14:25:44.089Z,28.77
2022-10-04T14:32:03.267Z,29.37
2022-10-04T14:34:47.316Z,29.58
2022-10-04T14:37:57.802Z,29.56
2022-10-04T14:40:53.227Z,29.59
2022-10-04T14:43:54.776Z,29.57
2022-10-04T14:46:45.440Z,29.57
2022-10-04T14:49:45.659Z,29.65
2022-10-04T14:52:26.725Z,29.75
2022-10-04T14:55:11.413Z,30.20
2022-10-04T14:57:43.515Z,30.38
2022-10-04T15:00:23.691Z,30.16
2022-10-04T15:03:14.448Z,30.05
2022-10-04T15:06:00.941Z,30.09
2022-10-04T15:08:41.815Z,30.33
2022-10-04T15:11:32.035Z,30.06
2022-10-04T15:14:22.000Z,30.14
2022-10-04T15:17:03.595Z,30.31
2022-10-04T15:19:44.156Z,29.54
2022-10-04T15:22:23.920Z,28.98
2022-10-04T15:24:53.803Z,29.01
2022-10-04T15:27:27.692Z,28.83
2022-10-04T15:30:08.435Z,27.84
2022-10-04T15:32:51.964Z,26.48
2022-10-04T15:35:38.274Z,25.23
2022-10-04T15:38:22.028Z,24.06
2022-10-04T15:40:49.496Z,23.06
2022-10-04T15:43:38.896Z,22.28
2022-10-04T15:46:41.378Z,21.43
2022-10-04T15:49:40.963Z,20.57
2022-10-04T15:52:44.453Z,19.87
2022-10-04T15:55:18.240Z,19.28
2022-10-04T15:57:45.760Z,18.86
2022-10-04T16:00:16.110Z,18.46
2022-10-04T16:03:02.370Z,18.07
2022-10-04T16:05:42.205Z,17.69
2022-10-04T16:08:19.481Z,17.31
2022-10-04T16:11:03.242Z,16.95
2022-10-04T16:13:46.778Z,16.57
2022-10-04T16:16:17.612Z,16.20
2022-10-04T16:19:05.778Z,15.89
2022-10-04T16:21:49.251Z,15.60
2022-10-04T16:24:19.767Z,15.34
2022-10-04T16:26:47.894Z,15.13
2022-10-04T16:30:02.410Z,14.91
2022-10-04T16:33:07.396Z,14.63
2022-10-04T16:36:00.713Z,14.39
2022-10-04T16:39:03.974Z,14.16
2022-10-04T16:41:51.915Z,13.97
2022-10-04T16:44:51.436Z,13.77
2022-10-04T16:47:30.995Z,13.57
2022-10-04T16:50:02.103Z,13.41
2022-10-04T16:52:50.396Z,13.27
2022-10-04T16:55:33.933Z,13.12
2022-10-04T16:58:38.737Z,12.95
2022-10-04T17:01:22.471Z,12.73
2022-10-04T17:04:09.009Z,12.57
2022-10-04T17:06:52.571Z,12.42
2022-10-04T17:09:52.244Z,12.28
2022-10-04T17:12:37.230Z,12.17
2022-10-04T17:15:16.789Z,12.09
2022-10-04T17:17:48.387Z,12.02
2022-10-04T17:20:38.624Z,11.95
2022-10-04T17:23:12.614Z,11.91
2022-10-04T17:26:12.087Z,11.87
2022-10-04T17:28:56.875Z,11.78
2022-10-04T17:31:34.147Z,11.71
2022-10-04T17:34:36.071Z,11.66
2022-10-04T17:37:13.823Z,11.58
2022-10-04T17:39:46.671Z,11.50
2022-10-04T17:42:29.624Z,11.43
2022-10-04T17:45:14.711Z,11.36
2022-10-04T17:48:18.243Z,11.31
2022-10-04T17:51:25.579Z,11.24
2022-10-04T17:54:39.388Z,11.21
2022-10-04T17:57:09.993Z,11.20
2022-10-04T18:00:09.323Z,11.20
2022-10-04T18:02:59.802Z,11.20
2022-10-04T18:05:42.602Z,11.19
2022-10-04T18:08:21.983Z,11.17
2022-10-04T18:11:20.533Z,11.16
2022-10-04T18:14:02.596Z,11.14
2022-10-04T18:16:42.066Z,11.10
2022-10-04T18:19:41.622Z,11.05
2022-10-04T18:22:17.989Z,11.01
2022-10-04T18:24:48.318Z,10.97
2022-10-04T18:27:26.949Z,10.93
2022-10-04T18:30:00.632Z,10.88
2022-10-04T18:32:33.863Z,10.85
2022-10-04T18:35:18.605Z,10.84
2022-10-04T18:37:46.216Z,10.84
2022-10-04T18:40:41.581Z,10.82
2022-10-04T18:43:35.786Z,10.78
2022-10-04T18:46:15.546Z,10.72
2022-10-04T18:48:52.181Z,10.65
2022-10-04T18:51:30.385Z,10.57
2022-10-04T18:54:31.217Z,10.51
2022-10-04T18:57:25.752Z,10.45
2022-10-04T19:00:21.006Z,10.40
2022-10-04T19:03:27.894Z,10.35
2022-10-04T19:06:07.678Z,10.28
2022-10-04T19:09:07.156Z,10.23
2022-10-04T19:11:59.758Z,10.18
2022-10-04T19:14:43.387Z,10.12
2022-10-04T19:17:26.267Z,10.06
2022-10-04T19:20:19.118Z,10.04
2022-10-04T19:22:59.159Z,10.01
2022-10-04T19:26:26.302Z,10.01
2022-10-04T19:28:41.512Z,10.01
2022-10-04T19:31:27.953Z,10.01
2022-10-04T19:34:06.121Z,9.98
2022-10-04T19:37:03.622Z,9.97
2022-10-04T19:39:49.999Z,9.91
2022-10-04T19:42:29.283Z,9.86
2022-10-04T19:45:25.258Z,9.82
2022-10-04T19:47:59.093Z,9.80
2022-10-04T19:50:40.006Z,9.80
2022-10-04T19:53:31.358Z,9.80
2022-10-04T19:56:01.094Z,9.79
2022-10-04T19:58:45.621Z,9.77
2022-10-04T20:01:24.061Z,9.77
2022-10-04T20:04:09.503Z,9.75
2022-10-04T20:06:55.700Z,9.73
2022-10-04T20:09:48.099Z,9.69
2022-10-04T20:12:40.262Z,9.67
2022-10-04T20:15:16.895Z,9.63
2022-10-04T20:17:47.457Z,9.62
2022-10-04T20:20:38.701Z,9.61
2022-10-04T20:23:07.953Z,9.60
2022-10-04T20:25:54.453Z,9.60
2022-10-04T20:28:32.211Z,9.62
2022-10-04T20:31:02.344Z,9.66
2022-10-04T20:33:32.922Z,9.69
2022-10-04T20:36:10.989Z,9.74
2022-10-04T20:38:54.473Z,9.76
2022-10-04T20:41:47.229Z,9.78
2022-10-04T20:44:47.194Z,9.79
2022-10-04T20:47:35.562Z,9.79
2022-10-04T20:50:14.305Z,9.79
2022-10-04T20:52:55.640Z,9.81
2022-10-04T20:55:28.075Z,9.81
2022-10-04T20:58:01.553Z,9.82
2022-10-04T21:00:34.128Z,9.85
2022-10-04T21:03:22.082Z,9.86
2022-10-04T21:06:08.889Z,9.87
2022-10-04T21:08:37.929Z,9.86
2022-10-04T21:11:09.973Z,9.88
2022-10-04T21:13:57.298Z,9.89
2022-10-04T21:16:44.652Z,9.88
2022-10-04T21:19:32.749Z,9.87
2022-10-04T21:22:06.524Z,9.85
2022-10-04T21:24:53.426Z,9.84
2022-10-04T21:27:37.130Z,9.81
2022-10-04T21:30:24.743Z,9.80
2022-10-04T21:32:52.298Z,9.79
2022-10-04T21:35:19.935Z,9.77
2022-10-04T21:37:47.493Z,9.78
2022-10-04T21:40:15.119Z,9.78
2022-10-04T21:42:42.717Z,9.81
2022-10-04T21:45:10.566Z,9.84
2022-10-04T21:47:38.185Z,9.87
2022-10-04T21:50:06.207Z,9.89
2022-10-04T21:52:33.798Z,9.92
2022-10-04T21:55:01.389Z,9.94
2022-10-04T21:57:34.693Z,9.95
2022-10-04T22:00:05.186Z,9.95
2022-10-04T22:02:32.797Z,9.95
2022-10-04T22:18:22.514Z,9.83
2022-10-04T22:20:50.159Z,9.81
2022-10-04T22:23:24.890Z,9.79
2022-10-04T22:25:53.813Z,9.77
2022-10-04T22:28:23.057Z,9.76
2022-10-04T22:30:52.198Z,9.74
2022-10-04T22:33:40.214Z,9.70
2022-10-04T22:36:14.537Z,9.65
2022-10-04T22:38:44.585Z,9.62
2022-10-04T22:41:15.376Z,9.62
2022-10-04T22:43:43.030Z,9.62
2022-10-04T22:46:17.883Z,9.62
2022-10-04T22:48:48.050Z,9.62
2022-10-04T22:51:15.613Z,9.59
2022-10-04T22:53:46.481Z,9.55
2022-10-04T22:56:15.990Z,9.51
2022-10-04T22:58:43.931Z,9.49
2022-10-04T23:01:14.802Z,9.49
2022-10-04T23:03:47.645Z,9.48
2022-10-04T23:06:15.520Z,9.48
2022-10-04T23:08:43.902Z,9.48
2022-10-04T23:11:11.585Z,9.47
2022-10-04T23:13:39.266Z,9.47
2022-10-04T23:16:16.495Z,9.48
2022-10-04T23:18:44.117Z,9.50
2022-10-04T23:21:33.837Z,9.51
2022-10-04T23:24:17.459Z,9.52
2022-10-04T23:26:49.634Z,9.49
2022-10-04T23:29:25.404Z,9.47
2022-10-04T23:31:54.041Z,9.45
2022-10-04T23:34:34.323Z,9.45
2022-10-04T23:37:03.300Z,9.47
2022-10-04T23:39:34.789Z,9.46
2022-10-04T23:42:21.461Z,9.46
2022-10-04T23:44:50.473Z,9.46
2022-10-04T23:47:19.659Z,9.47
2022-10-04T23:49:51.217Z,9.50
2022-10-04T23:52:27.234Z,9.53
2022-10-04T23:54:55.640Z,9.55
2022-10-04T23:57:26.814Z,9.56
2022-10-04T23:59:55.301Z,9.58
